Time;durP1;ratioP1;P1;durP2;ratioP2;P2;SDS_P1;SDS_P2;PMS_P1;PMS_P2;Temp;Humidity;BMP_temperature;BMP_pressure;BME280_temperature;BME280_humidity;BME280_pressure;Samples;Min_cycle;Max_cycle;Signal;HPM_P1;HPM_P2
2022/12/03 00:04:14;;;;;;;149.23;24.93;;;;;2.60;96386.00;;;;8465972;28;20198;-76
2022/12/03 00:08:17;;;;;;;178.13;25.57;;;;;2.60;96389.00;;;;8465829;28;20200;-75
2022/12/03 00:12:20;;;;;;;171.40;25.27;;;;;2.60;96384.00;;;;8466491;28;20193;-75
2022/12/03 00:16:25;;;;;;;150.90;24.13;;;;;2.60;96387.00;;;;8466790;28;20204;-75
2022/12/03 00:20:28;;;;;;;167.93;25.70;;;;;2.60;96387.00;;;;8465540;28;20235;-75
2022/12/03 00:24:31;;;;;;;145.47;24.60;;;;;2.50;96384.00;;;;8466508;28;20726;-75
2022/12/03 00:29:08;;;;;;;172.73;26.93;;;;;2.60;96384.00;;;;8464858;28;20193;-75
2022/12/03 00:33:12;;;;;;;145.53;24.47;;;;;2.50;96377.00;;;;8466047;28;20216;-75
2022/12/03 00:37:15;;;;;;;151.67;24.37;;;;;2.50;96375.00;;;;8465706;28;20197;-75
2022/12/03 00:41:18;;;;;;;146.83;23.47;;;;;2.50;96377.00;;;;8466060;28;20639;-75
2022/12/03 00:45:21;;;;;;;164.07;25.33;;;;;2.50;96375.00;;;;8465756;28;20291;-75
2022/12/03 00:49:26;;;;;;;173.97;27.20;;;;;2.50;96373.00;;;;8465533;28;20620;-75
2022/12/03 00:53:29;;;;;;;200.90;27.00;;;;;2.60;96368.00;;;;8464663;28;20193;-75
2022/12/03 00:57:32;;;;;;;178.93;26.20;;;;;2.50;96370.00;;;;8465306;28;20692;-75
2022/12/03 01:01:35;;;;;;;174.87;25.70;;;;;2.50;96379.00;;;;8464257;28;20197;-76
2022/12/03 01:05:39;;;;;;;170.80;25.70;;;;;2.50;96372.00;;;;8465373;28;20671;-77
2022/12/03 01:09:42;;;;;;;182.03;25.70;;;;;2.60;96381.00;;;;8464076;28;20205;-77
2022/12/03 01:13:45;;;;;;;163.33;24.40;;;;;2.60;96369.00;;;;8465086;28;20217;-77
2022/12/03 01:17:48;;;;;;;190.80;25.50;;;;;2.60;96378.00;;;;8466268;28;20246;-77
2022/12/03 01:21:54;;;;;;;244.17;29.83;;;;;2.60;96372.00;;;;8472035;28;20197;-78
2022/12/03 01:26:28;;;;;;;341.80;30.87;;;;;2.60;96375.00;;;;8471145;28;20222;-78
2022/12/03 01:32:15;;;;;;;259.10;28.67;;;;;2.50;96374.00;;;;8471680;28;20274;-78
2022/12/03 01:34:55;;;;;;;343.03;32.07;;;;;2.50;96377.00;;;;8470975;28;20193;-78
2022/12/03 01:39:00;;;;;;;385.43;31.87;;;;;2.50;96379.00;;;;8471245;28;20189;-78
2022/12/03 01:43:34;;;;;;;159.87;24.47;;;;;2.60;96381.00;;;;8470805;28;20552;-78
2022/12/03 01:47:38;;;;;;;188.07;28.27;;;;;2.50;96377.00;;;;8470564;28;20222;-78
2022/12/03 01:51:41;;;;;;;135.70;23.00;;;;;2.60;96376.00;;;;8471382;28;20646;-78
2022/12/03 01:55:46;;;;;;;192.17;28.17;;;;;2.50;96364.00;;;;8470421;28;20197;-78
2022/12/03 01:59:52;;;;;;;167.47;25.47;;;;;2.60;96372.00;;;;8471095;28;20573;-78
2022/12/03 02:04:25;;;;;;;164.03;25.57;;;;;2.60;96372.00;;;;8470322;28;20641;-78
2022/12/03 02:08:33;;;;;;;152.23;24.83;;;;;2.60;96368.00;;;;8469836;28;20267;-78
2022/12/03 02:12:41;;;;;;;140.07;23.87;;;;;2.50;96368.00;;;;8470062;28;20700;-78
2022/12/03 02:16:45;;;;;;;170.77;27.00;;;;;2.60;96367.00;;;;8469959;28;20536;-78
2022/12/03 02:20:57;;;;;;;218.60;29.80;;;;;2.60;96369.00;;;;8469048;28;20194;-77
2022/12/03 02:25:12;;;;;;;167.93;25.17;;;;;2.60;96364.00;;;;8469804;28;20271;-78
2022/12/03 02:29:39;;;;;;;179.27;28.37;;;;;2.60;96370.00;;;;8468029;28;20627;-77
2022/12/03 02:33:43;;;;;;;231.20;29.43;;;;;2.60;96367.00;;;;8469769;28;20670;-78
2022/12/03 02:37:48;;;;;;;211.30;30.47;;;;;2.60;96365.00;;;;8469260;28;20197;-78
2022/12/03 02:46:15;;;;;;;261.67;30.33;;;;;2.60;96357.00;;;;8469003;28;20224;-77
2022/12/03 02:50:21;;;;;;;264.90;29.83;;;;;2.70;96371.00;;;;8469779;28;20669;-77
2022/12/03 02:54:24;;;;;;;285.83;32.50;;;;;2.70;96371.00;;;;8468616;28;20190;-77
2022/12/03 02:58:30;;;;;;;270.63;31.27;;;;;2.70;96369.00;;;;8469357;28;20560;-77
2022/12/03 03:02:36;;;;;;;294.23;29.97;;;;;2.70;96375.00;;;;8471826;22;20240;-79
2022/12/03 03:06:39;;;;;;;252.27;30.13;;;;;2.70;96373.00;;;;8403935;28;20350;-80
2022/12/03 03:10:43;;;;;;;211.13;29.53;;;;;2.70;96377.00;;;;8407176;28;20187;-81
2022/12/03 03:14:48;;;;;;;199.37;26.43;;;;;2.70;96377.00;;;;8402188;28;20210;-80
2022/12/03 03:18:51;;;;;;;227.27;29.50;;;;;2.70;96373.00;;;;8410407;28;20221;-79
2022/12/03 03:22:54;;;;;;;222.87;29.33;;;;;2.70;96383.00;;;;8407530;28;20225;-81
2022/12/03 03:26:58;;;;;;;178.00;27.33;;;;;2.80;96382.00;;;;8400953;28;20230;-80
2022/12/03 03:31:03;;;;;;;181.80;27.00;;;;;2.70;96379.00;;;;8410149;28;20202;-80
2022/12/03 03:35:08;;;;;;;153.33;24.00;;;;;2.70;96380.00;;;;8404087;28;20191;-81
2022/12/03 03:39:12;;;;;;;137.00;25.53;;;;;2.60;96376.00;;;;8399450;28;20198;-80
2022/12/03 03:43:15;;;;;;;167.53;27.50;;;;;2.70;96379.00;;;;8397866;28;20555;-80
2022/12/03 03:47:20;;;;;;;173.33;26.37;;;;;2.70;96382.00;;;;8407640;28;20237;-80
2022/12/03 03:51:23;;;;;;;148.80;26.17;;;;;2.80;96381.00;;;;8406177;28;20198;-83
2022/12/03 03:55:26;;;;;;;153.70;25.23;;;;;2.70;96372.00;;;;8406744;28;20195;-81
2022/12/03 03:59:30;;;;;;;150.00;25.43;;;;;2.70;96374.00;;;;8403931;28;20196;-80
2022/12/03 04:03:34;;;;;;;155.50;24.83;;;;;2.80;96381.00;;;;8391146;28;20234;-80
2022/12/03 04:07:37;;;;;;;157.90;25.93;;;;;2.70;96378.00;;;;8377250;28;20230;-81
2022/12/03 04:16:01;;;;;;;132.43;24.93;;;;;2.60;96364.00;;;;8373994;28;20250;-79
2022/12/03 04:20:07;;;;;;;142.33;27.57;;;;;2.60;96369.00;;;;8384163;28;20211;-80
2022/12/03 04:24:12;;;;;;;148.10;24.93;;;;;2.70;96366.00;;;;8384949;28;20541;-81
2022/12/03 04:36:57;;;;;;;120.07;22.93;;;;;2.70;96358.00;;;;8384234;28;20256;-79
2022/12/03 04:41:00;;;;;;;139.53;24.80;;;;;2.70;96366.00;;;;8384209;28;20193;-82
2022/12/03 04:45:04;;;;;;;131.90;24.20;;;;;2.70;96356.00;;;;8381408;28;20199;-79
2022/12/03 04:49:07;;;;;;;127.40;23.40;;;;;2.70;96350.00;;;;8388009;28;20265;-83
2022/12/03 04:53:11;;;;;;;133.33;24.30;;;;;2.60;96358.00;;;;8383570;28;20210;-80
2022/12/03 04:57:15;;;;;;;140.87;25.53;;;;;2.70;96355.00;;;;8383518;28;20276;-78
2022/12/03 05:01:18;;;;;;;135.03;24.07;;;;;2.70;96346.00;;;;8383325;28;20211;-80
2022/12/03 05:05:21;;;;;;;99.83;20.47;;;;;2.70;96343.00;;;;8379876;28;20202;-80
2022/12/03 05:09:25;;;;;;;134.73;24.20;;;;;2.60;96349.00;;;;8381932;28;20562;-80
2022/12/03 05:13:29;;;;;;;116.87;23.37;;;;;2.60;96337.00;;;;8381899;28;20210;-78
2022/12/03 05:17:32;;;;;;;119.93;23.87;;;;;2.60;96338.00;;;;8383742;28;20225;-79
2022/12/03 05:21:35;;;;;;;141.50;24.87;;;;;2.60;96345.00;;;;8384167;28;20193;-80
2022/12/03 05:25:40;;;;;;;130.67;24.00;;;;;2.70;96349.00;;;;8382465;28;20197;-78
2022/12/03 05:29:43;;;;;;;129.43;23.67;;;;;2.70;96359.00;;;;8375548;28;20200;-79
2022/12/03 05:33:46;;;;;;;133.13;24.03;;;;;2.80;96349.00;;;;8382259;28;20685;-79
2022/12/03 05:37:49;;;;;;;120.27;23.37;;;;;2.80;96365.00;;;;8384069;28;20191;-78
2022/12/03 05:46:14;;;;;;;136.73;24.20;;;;;2.80;96361.00;;;;8376829;28;20230;-79
2022/12/03 05:50:17;;;;;;;117.90;23.57;;;;;2.80;96362.00;;;;8381538;28;20298;-85
2022/12/03 05:54:20;;;;;;;125.60;22.87;;;;;2.70;96367.00;;;;8375445;28;20582;-81
2022/12/03 05:58:25;;;;;;;119.07;23.10;;;;;2.80;96372.00;;;;8376235;28;20302;-78
2022/12/03 06:02:28;;;;;;;127.97;24.10;;;;;2.80;96368.00;;;;8376391;28;20638;-77
2022/12/03 06:06:31;;;;;;;132.60;24.40;;;;;2.80;96374.00;;;;8387575;28;20675;-78
2022/12/03 06:10:34;;;;;;;109.90;20.57;;;;;2.70;96368.00;;;;8387425;28;20214;-79
2022/12/03 06:14:39;;;;;;;100.57;20.93;;;;;2.60;96361.00;;;;8388762;28;20199;-81
2022/12/03 06:18:42;;;;;;;128.00;24.13;;;;;2.60;96358.00;;;;8389958;28;20210;-77
2022/12/03 06:22:45;;;;;;;119.60;23.07;;;;;2.70;96380.00;;;;8386917;28;20581;-78
2022/12/03 06:26:48;;;;;;;132.90;24.00;;;;;2.70;96384.00;;;;8386502;28;20226;-77
2022/12/03 06:30:53;;;;;;;123.03;23.90;;;;;2.70;96380.00;;;;8381298;28;20215;-80
2022/12/03 06:34:56;;;;;;;109.57;23.23;;;;;2.70;96389.00;;;;8378541;28;20201;-79
2022/12/03 06:38:59;;;;;;;128.17;23.43;;;;;2.70;96382.00;;;;8376546;28;20204;-82
2022/12/03 06:43:02;;;;;;;89.70;20.20;;;;;2.70;96379.00;;;;8376418;28;20204;-77
2022/12/03 06:47:07;;;;;;;126.37;25.70;;;;;2.70;96383.00;;;;8378270;28;20227;-76
2022/12/03 06:51:10;;;;;;;101.13;22.20;;;;;2.80;96373.00;;;;8387008;28;20546;-82
2022/12/03 06:55:13;;;;;;;122.73;24.53;;;;;2.70;96375.00;;;;8382639;28;20704;-77
2022/12/03 06:59:16;;;;;;;117.87;22.60;;;;;2.80;96373.00;;;;8379061;28;20195;-82
2022/12/03 07:03:21;;;;;;;95.23;20.73;;;;;2.80;96377.00;;;;8378088;28;20232;-79
2022/12/03 07:07:24;;;;;;;130.47;23.80;;;;;2.80;96374.00;;;;8381171;28;20312;-79
2022/12/03 07:11:38;;;;;;;131.23;28.10;;;;;2.80;96373.00;;;;8385690;28;20206;-80
2022/12/03 07:15:42;;;;;;;126.27;23.13;;;;;2.80;96364.00;;;;8382619;28;20214;-77
2022/12/03 07:19:47;;;;;;;126.60;23.27;;;;;2.80;96365.00;;;;8377200;28;20195;-82
2022/12/03 07:23:50;;;;;;;107.30;21.60;;;;;2.80;96359.00;;;;8379989;28;20737;-75
2022/12/03 07:27:53;;;;;;;114.77;22.53;;;;;2.80;96356.00;;;;8383385;28;20266;-83
2022/12/03 07:31:56;;;;;;;86.33;18.60;;;;;2.80;96355.00;;;;8383950;28;20200;-76
2022/12/03 07:36:00;;;;;;;110.80;22.27;;;;;2.80;96362.00;;;;8383403;28;20207;-82
2022/12/03 07:40:04;;;;;;;112.00;21.17;;;;;2.80;96352.00;;;;8382376;28;20190;-76
2022/12/03 07:44:08;;;;;;;113.50;21.37;;;;;2.90;96355.00;;;;8384344;28;20207;-79
2022/12/03 07:48:16;;;;;;;104.10;21.07;;;;;2.90;96351.00;;;;8376871;28;20274;-80
2022/12/03 07:52:21;;;;;;;98.67;21.07;;;;;2.80;96356.00;;;;8384264;28;20206;-80
2022/12/03 07:56:24;;;;;;;133.97;23.23;;;;;2.80;96356.00;;;;8381409;28;20738;-82
2022/12/03 08:00:27;;;;;;;85.23;17.27;;;;;2.80;96356.00;;;;8381469;28;20596;-77
2022/12/03 08:04:30;;;;;;;107.47;22.10;;;;;2.80;96348.00;;;;8376553;28;20863;-81
2022/12/03 08:08:35;;;;;;;139.87;24.70;;;;;2.80;96357.00;;;;8384685;28;20227;-80
2022/12/03 08:12:41;;;;;;;131.60;23.90;;;;;2.80;96351.00;;;;8385898;28;20247;-77
2022/12/03 08:16:47;;;;;;;143.57;24.80;;;;;2.80;96353.00;;;;8384487;28;20199;-79
2022/12/03 08:20:51;;;;;;;116.90;23.10;;;;;2.80;96351.00;;;;8385022;28;20272;-77
2022/12/03 08:24:58;;;;;;;121.27;21.90;;;;;2.90;96334.00;;;;8380994;28;20259;-81
2022/12/03 08:29:01;;;;;;;108.70;20.20;;;;;3.00;96335.00;;;;8383071;28;20237;-79
2022/12/03 08:33:16;;;;;;;116.80;23.60;;;;;2.90;96345.00;;;;8378148;28;20199;-77
2022/12/03 08:37:19;;;;;;;120.00;22.17;;;;;2.90;96349.00;;;;8378069;28;20233;-78
2022/12/03 08:45:42;;;;;;;115.93;22.83;;;;;2.80;96350.00;;;;8377868;28;20224;-79
2022/12/03 08:49:51;;;;;;;110.87;21.60;;;;;2.90;96354.00;;;;8376083;28;20748;-78
2022/12/03 08:54:03;;;;;;;119.57;25.13;;;;;3.00;96347.00;;;;8374888;28;20201;-80
2022/12/03 08:58:18;;;;;;;130.13;24.20;;;;;3.00;96356.00;;;;8371866;28;20203;-77
2022/12/03 09:02:28;;;;;;;163.50;38.10;;;;;3.00;96350.00;;;;8373902;28;20489;-78
2022/12/03 09:06:31;;;;;;;125.63;25.27;;;;;3.30;96346.00;;;;8384712;28;20267;-78
2022/12/03 09:10:34;;;;;;;107.27;21.77;;;;;3.30;96347.00;;;;8380861;28;20227;-78
2022/12/03 09:14:39;;;;;;;104.30;20.80;;;;;3.20;96346.00;;;;8382163;28;20625;-79
2022/12/03 09:18:43;;;;;;;100.67;20.57;;;;;3.20;96358.00;;;;8380390;28;20260;-79
2022/12/03 09:22:46;;;;;;;95.80;21.03;;;;;3.20;96349.00;;;;8377826;28;20204;-78
2022/12/03 09:26:49;;;;;;;90.13;19.93;;;;;3.20;96354.00;;;;8383685;28;20225;-78
2022/12/03 09:30:54;;;;;;;96.23;20.53;;;;;3.20;96359.00;;;;8381221;28;20227;-80
2022/12/03 09:34:58;;;;;;;92.80;20.47;;;;;3.10;96364.00;;;;8380600;28;20203;-79
2022/12/03 09:39:01;;;;;;;94.83;18.97;;;;;3.10;96358.00;;;;8385181;28;20332;-79
2022/12/03 09:43:04;;;;;;;96.07;20.77;;;;;3.10;96353.00;;;;8390354;28;20204;-79
2022/12/03 09:47:09;;;;;;;91.60;19.97;;;;;3.00;96342.00;;;;8388180;28;20193;-79
2022/12/03 09:51:12;;;;;;;89.17;19.20;;;;;3.00;96351.00;;;;8390586;28;20277;-79
2022/12/03 09:55:18;;;;;;;80.33;18.30;;;;;3.00;96356.00;;;;8386358;28;20557;-79
2022/12/03 09:59:23;;;;;;;91.33;19.57;;;;;3.00;96365.00;;;;8388145;28;20207;-79
2022/12/03 10:03:30;;;;;;;78.97;20.40;;;;;3.00;96357.00;;;;8385910;28;20228;-78
2022/12/03 10:07:33;;;;;;;90.63;19.50;;;;;3.00;96337.00;;;;8380229;28;20265;-78
2022/12/03 10:11:36;;;;;;;82.27;19.07;;;;;3.00;96333.00;;;;8381248;28;20287;-78
2022/12/03 10:15:40;;;;;;;86.07;19.90;;;;;3.00;96348.00;;;;8388324;28;20330;-77
2022/12/03 10:19:44;;;;;;;73.73;17.60;;;;;3.10;96348.00;;;;8387570;28;20192;-77
2022/12/03 10:23:49;;;;;;;82.90;18.60;;;;;3.10;96338.00;;;;8386264;28;21008;-77
2022/12/03 10:27:59;;;;;;;86.07;19.30;;;;;3.10;96341.00;;;;8388715;28;20220;-77
2022/12/03 10:32:04;;;;;;;85.87;18.47;;;;;3.10;96335.00;;;;8387469;28;20279;-78
2022/12/03 10:36:21;;;;;;;72.80;18.83;;;;;3.10;96324.00;;;;8389263;28;20590;-77
2022/12/03 10:40:25;;;;;;;74.70;17.33;;;;;3.20;96320.00;;;;8388534;28;20600;-79
2022/12/03 10:44:29;;;;;;;70.13;16.60;;;;;3.20;96319.00;;;;8387630;28;20200;-79
2022/12/03 10:48:32;;;;;;;68.83;15.77;;;;;3.30;96316.00;;;;8384346;28;20212;-77
2022/12/03 10:52:37;;;;;;;73.33;17.23;;;;;3.30;96315.00;;;;8388151;28;20204;-80
2022/12/03 10:56:40;;;;;;;72.40;17.83;;;;;3.30;96307.00;;;;8381945;28;20203;-77
2022/12/03 11:00:43;;;;;;;79.03;17.43;;;;;3.30;96305.00;;;;8372929;28;20273;-74
2022/12/03 11:04:47;;;;;;;85.80;19.17;;;;;3.40;96303.00;;;;8376181;28;20223;-79
2022/12/03 11:08:53;;;;;;;68.60;17.90;;;;;3.30;96301.00;;;;8371082;28;20222;-78
2022/12/03 11:13:27;;;;;;;82.60;18.30;;;;;3.20;96298.00;;;;8383993;28;20233;-77
2022/12/03 11:17:49;;;;;;;56.57;16.03;;;;;3.10;96296.00;;;;8387752;28;20201;-80
2022/12/03 11:22:24;;;;;;;86.20;19.07;;;;;3.00;96288.00;;;;8384505;28;20265;-79
2022/12/03 11:27:05;;;;;;;82.90;18.03;;;;;3.00;96281.00;;;;8384838;28;20212;-77
2022/12/03 11:31:37;;;;;;;82.97;18.90;;;;;2.90;96285.00;;;;8382276;28;20233;-81
2022/12/03 11:36:12;;;;;;;74.57;16.80;;;;;2.90;96284.00;;;;8384494;28;20200;-78
2022/12/03 11:40:32;;;;;;;113.00;21.93;;;;;2.90;96275.00;;;;8385075;28;20204;-81
2022/12/03 11:44:41;;;;;;;91.90;20.33;;;;;2.90;96275.00;;;;8381522;28;20257;-80
2022/12/03 11:48:51;;;;;;;87.17;19.00;;;;;2.90;96269.00;;;;8382906;28;20227;-86
2022/12/03 11:52:59;;;;;;;63.97;14.63;;;;;2.90;96260.00;;;;8382031;28;20248;-83
2022/12/03 11:57:02;;;;;;;58.37;15.67;;;;;2.90;96263.00;;;;8380408;28;20284;-81
2022/12/03 12:01:07;;;;;;;90.47;17.53;;;;;2.90;96245.00;;;;8378026;28;20197;-82
2022/12/03 12:05:27;;;;;;;89.23;18.13;;;;;3.00;96241.00;;;;8380844;28;20211;-79
2022/12/03 12:09:51;;;;;;;77.77;17.53;;;;;3.00;96239.00;;;;8378767;28;20231;-81
2022/12/03 12:13:57;;;;;;;78.33;18.00;;;;;3.00;96236.00;;;;8383399;28;20213;-79
2022/12/03 12:18:33;;;;;;;80.83;18.03;;;;;2.90;96234.00;;;;8381224;28;20203;-80
2022/12/03 12:22:38;;;;;;;79.37;17.37;;;;;2.90;96239.00;;;;8386244;28;20192;-80
2022/12/03 12:26:50;;;;;;;73.87;16.27;;;;;3.00;96227.00;;;;8383627;28;20645;-82
2022/12/03 12:30:53;;;;;;;69.73;16.33;;;;;3.00;96218.00;;;;8383485;28;20584;-82
2022/12/03 12:35:00;;;;;;;69.40;16.53;;;;;2.90;96221.00;;;;8368311;28;20216;-80
2022/12/03 12:39:08;;;;;;;74.93;16.47;;;;;2.80;96218.00;;;;8382772;28;20207;-81
2022/12/03 12:43:21;;;;;;;82.00;17.13;;;;;2.90;96207.00;;;;8375279;28;20207;-82
2022/12/03 12:47:28;;;;;;;82.83;19.43;;;;;2.90;96201.00;;;;8371230;28;20565;-83
2022/12/03 12:51:32;;;;;;;96.53;20.27;;;;;2.80;96203.00;;;;8376197;28;22060;-83
2022/12/03 12:55:37;;;;;;;74.83;16.10;;;;;2.90;96209.00;;;;8374084;28;20194;-82
2022/12/03 12:59:40;;;;;;;73.93;16.67;;;;;2.90;96219.00;;;;8379314;28;20203;-81
2022/12/03 13:03:43;;;;;;;77.10;17.83;;;;;3.00;96209.00;;;;8373954;28;20238;-84
2022/12/03 13:07:46;;;;;;;75.27;16.37;;;;;2.90;96210.00;;;;8382021;28;20247;-83
2022/12/03 13:11:55;;;;;;;82.00;18.23;;;;;2.80;96207.00;;;;8366598;28;20752;-84
2022/12/03 13:16:06;;;;;;;73.10;17.10;;;;;2.90;96194.00;;;;8377749;28;20241;-84
2022/12/03 13:20:18;;;;;;;71.93;15.60;;;;;2.80;96193.00;;;;8379113;28;20203;-85
2022/12/03 13:24:31;;;;;;;58.37;15.77;;;;;2.80;96207.00;;;;8373158;28;20208;-85
2022/12/03 13:28:36;;;;;;;67.57;15.87;;;;;2.80;96204.00;;;;8379942;28;22276;-85
2022/12/03 13:32:42;;;;;;;71.27;17.47;;;;;2.70;96193.00;;;;8376355;28;20200;-85
2022/12/03 13:36:46;;;;;;;56.40;13.80;;;;;2.80;96175.00;;;;8373117;28;20201;-85
2022/12/03 13:41:01;;;;;;;55.20;14.00;;;;;2.80;96190.00;;;;8373451;28;20200;-86
2022/12/03 13:45:29;;;;;;;82.93;16.70;;;;;2.80;96188.00;;;;8370295;28;20216;-85
2022/12/03 13:49:32;;;;;;;59.57;15.87;;;;;2.80;96185.00;;;;8376722;28;20763;-86
2022/12/03 13:53:37;;;;;;;66.77;15.93;;;;;2.80;96184.00;;;;8378463;28;20199;-86
2022/12/03 13:57:40;;;;;;;52.67;14.03;;;;;2.80;96182.00;;;;8378272;28;20196;-88
2022/12/03 14:01:45;;;;;;;63.30;14.30;;;;;2.80;96183.00;;;;8376206;28;20235;-87
2022/12/03 14:05:48;;;;;;;63.13;14.47;;;;;2.80;96180.00;;;;8377273;28;20196;-89
2022/12/03 14:09:51;;;;;;;66.97;16.37;;;;;2.80;96174.00;;;;8375671;28;20671;-88
2022/12/03 14:14:00;;;;;;;74.67;15.83;;;;;2.80;96178.00;;;;8372795;28;20293;-85
2022/12/03 14:18:07;;;;;;;75.17;14.90;;;;;2.80;96174.00;;;;8369066;28;20317;-86
2022/12/03 14:22:11;;;;;;;60.63;15.07;;;;;2.80;96184.00;;;;8366573;28;20256;-86
2022/12/03 14:26:14;;;;;;;69.27;15.97;;;;;2.90;96186.00;;;;8377497;28;20941;-86
2022/12/03 14:30:17;;;;;;;78.27;16.43;;;;;2.80;96171.00;;;;8372148;28;20887;-86
2022/12/03 14:34:22;;;;;;;59.83;15.57;;;;;2.80;96176.00;;;;8375047;28;20960;-87
2022/12/03 14:38:25;;;;;;;76.97;17.33;;;;;2.70;96173.00;;;;8372471;28;20204;-86
2022/12/03 14:42:28;;;;;;;70.57;17.67;;;;;2.60;96167.00;;;;8378368;28;20286;-86
2022/12/03 14:46:32;;;;;;;70.83;16.90;;;;;2.50;96162.00;;;;8378024;28;20203;-87
2022/12/03 14:50:36;;;;;;;40.83;11.20;;;;;2.50;96154.00;;;;8378447;28;20225;-86
2022/12/03 14:54:40;;;;;;;46.17;12.83;;;;;2.50;96168.00;;;;8375599;28;20202;-86
2022/12/03 14:58:44;;;;;;;69.23;16.17;;;;;2.40;96173.00;;;;8381453;28;20198;-86
2022/12/03 15:02:47;;;;;;;58.07;15.20;;;;;2.50;96176.00;;;;8380248;28;20683;-87
2022/12/03 15:06:52;;;;;;;69.30;16.90;;;;;2.50;96170.00;;;;8386697;28;20196;-87
2022/12/03 15:10:55;;;;;;;58.33;16.63;;;;;2.40;96163.00;;;;8391597;28;20230;-85
2022/12/03 15:14:59;;;;;;;85.53;21.03;;;;;2.40;96162.00;;;;8394217;28;20210;-85
2022/12/03 15:19:02;;;;;;;74.57;17.87;;;;;2.40;96170.00;;;;8376169;28;20209;-88
2022/12/03 15:23:07;;;;;;;61.93;15.43;;;;;2.30;96182.00;;;;8366292;28;20209;-85
2022/12/03 15:27:16;;;;;;;71.13;16.53;;;;;2.30;96179.00;;;;8381738;28;20232;-85
2022/12/03 15:31:19;;;;;;;51.97;13.53;;;;;2.30;96176.00;;;;8380376;28;20293;-85
2022/12/03 15:35:22;;;;;;;66.67;16.33;;;;;2.30;96174.00;;;;8373017;28;20213;-85
2022/12/03 15:39:28;;;;;;;55.87;16.03;;;;;2.40;96183.00;;;;8379744;28;20196;-86
2022/12/03 15:43:31;;;;;;;70.87;16.10;;;;;2.40;96171.00;;;;8383221;28;20256;-85
2022/12/03 15:47:34;;;;;;;67.53;15.73;;;;;2.40;96167.00;;;;8381971;28;20624;-85
2022/12/03 15:51:37;;;;;;;49.33;13.90;;;;;2.40;96167.00;;;;8377166;28;20593;-83
2022/12/03 15:55:56;;;;;;;62.83;15.57;;;;;2.40;96161.00;;;;8376525;28;20199;-83
2022/12/03 15:59:59;;;;;;;65.37;16.43;;;;;2.40;96173.00;;;;8370536;28;20209;-84
2022/12/03 16:04:02;;;;;;;70.43;16.57;;;;;2.40;96163.00;;;;8374640;28;20755;-85
2022/12/03 16:08:05;;;;;;;73.07;16.27;;;;;2.50;96165.00;;;;8378062;28;20759;-83
2022/12/03 16:12:10;;;;;;;61.43;16.47;;;;;2.40;96154.00;;;;8378749;28;20223;-84
2022/12/03 16:16:13;;;;;;;79.70;17.40;;;;;2.40;96148.00;;;;8373222;28;20236;-85
2022/12/03 16:20:17;;;;;;;51.80;13.03;;;;;2.50;96146.00;;;;8376356;28;20733;-82
2022/12/03 16:24:20;;;;;;;73.63;18.13;;;;;2.40;96144.00;;;;8367521;28;20200;-85
2022/12/03 16:28:25;;;;;;;47.37;13.30;;;;;2.40;96137.00;;;;8379981;28;20225;-86
2022/12/03 16:32:28;;;;;;;65.43;15.07;;;;;2.40;96140.00;;;;8376351;28;20336;-83
2022/12/03 16:36:31;;;;;;;77.23;19.03;;;;;2.40;96134.00;;;;8371738;28;20196;-84
2022/12/03 16:40:35;;;;;;;64.93;15.30;;;;;2.40;96148.00;;;;8372350;28;20208;-86
2022/12/03 16:45:20;;;;;;;66.60;16.93;;;;;2.40;96149.00;;;;8377737;28;20225;-84
2022/12/03 16:49:17;;;;;;;52.47;13.70;;;;;2.40;96140.00;;;;8377790;28;20235;-86
2022/12/03 16:53:22;;;;;;;59.60;15.07;;;;;2.30;96133.00;;;;8376603;28;20251;-84
2022/12/03 16:57:25;;;;;;;44.97;12.63;;;;;2.40;96130.00;;;;8376447;28;20198;-83
2022/12/03 17:01:39;;;;;;;71.77;16.03;;;;;2.40;96127.00;;;;8377028;28;20261;-81
2022/12/03 17:05:42;;;;;;;83.43;18.60;;;;;2.50;96124.00;;;;8370915;28;20226;-85
2022/12/03 17:09:45;;;;;;;62.00;15.07;;;;;2.40;96138.00;;;;8377335;28;20241;-80
2022/12/03 17:13:48;;;;;;;69.77;15.73;;;;;2.40;96127.00;;;;8380315;28;20596;-84
2022/12/03 17:17:53;;;;;;;63.73;16.07;;;;;2.40;96131.00;;;;8377006;28;20643;-81
2022/12/03 17:21:58;;;;;;;82.57;20.43;;;;;2.40;96129.00;;;;8373944;28;20207;-80
2022/12/03 17:26:03;;;;;;;75.27;18.77;;;;;2.40;96137.00;;;;8375544;28;20730;-84
2022/12/03 17:30:08;;;;;;;84.40;18.73;;;;;2.40;96127.00;;;;8377405;28;20849;-82
2022/12/03 17:34:13;;;;;;;82.40;18.47;;;;;2.40;96128.00;;;;8380043;28;20199;-88
2022/12/03 17:38:16;;;;;;;65.50;15.93;;;;;2.50;96131.00;;;;8385479;28;20270;-83
2022/12/03 17:42:20;;;;;;;59.43;13.73;;;;;2.50;96122.00;;;;8385589;28;20207;-86
2022/12/03 17:46:23;;;;;;;46.07;12.03;;;;;2.50;96132.00;;;;8382436;28;20191;-82
2022/12/03 17:50:28;;;;;;;78.57;16.70;;;;;2.50;96129.00;;;;8377981;28;20221;-81
2022/12/03 17:54:31;;;;;;;96.03;19.83;;;;;2.40;96131.00;;;;8378915;28;20622;-81
2022/12/03 17:58:55;;;;;;;70.23;15.23;;;;;2.50;96146.00;;;;8383489;28;20235;-81
2022/12/03 18:02:59;;;;;;;87.93;19.43;;;;;2.40;96142.00;;;;8390227;28;20233;-84
2022/12/03 18:07:04;;;;;;;72.07;17.50;;;;;2.40;96145.00;;;;8383003;28;20212;-86
2022/12/03 18:11:07;;;;;;;73.37;17.03;;;;;2.40;96130.00;;;;8380644;28;20223;-88
2022/12/03 18:15:11;;;;;;;61.17;17.53;;;;;2.40;96143.00;;;;8380541;28;20210;-87
2022/12/03 18:19:14;;;;;;;79.83;17.97;;;;;2.40;96137.00;;;;8382502;28;20206;-87
2022/12/03 18:23:19;;;;;;;67.97;15.10;;;;;2.40;96124.00;;;;8381183;28;20194;-87
2022/12/03 18:27:22;;;;;;;63.63;15.87;;;;;2.40;96114.00;;;;8382306;28;20195;-87
2022/12/03 18:31:25;;;;;;;81.47;19.43;;;;;2.40;96111.00;;;;8382844;28;20232;-86
2022/12/03 18:35:29;;;;;;;81.30;19.30;;;;;2.40;96105.00;;;;8385531;28;20272;-85
2022/12/03 18:39:36;;;;;;;71.93;16.53;;;;;2.40;96103.00;;;;8381861;28;20245;-84
2022/12/03 18:43:41;;;;;;;85.03;18.37;;;;;2.40;96099.00;;;;8385499;28;20260;-86
2022/12/03 18:47:45;;;;;;;80.10;18.60;;;;;2.40;96106.00;;;;8384607;28;20291;-86
2022/12/03 18:51:48;;;;;;;73.33;17.27;;;;;2.40;96093.00;;;;8384249;28;20230;-88
2022/12/03 18:56:02;;;;;;;37.90;8.23;;;;;2.40;96094.00;;;;8380356;28;20231;-86
2022/12/03 19:00:07;;;;;;;72.83;16.67;;;;;2.40;96100.00;;;;8386787;28;20194;-86
2022/12/03 19:04:15;;;;;;;83.40;20.03;;;;;2.40;96091.00;;;;8376447;28;20744;-84
2022/12/03 19:08:19;;;;;;;87.60;19.43;;;;;2.40;96094.00;;;;8373343;28;20206;-84
2022/12/03 19:12:23;;;;;;;93.37;20.03;;;;;2.40;96092.00;;;;8369699;28;20229;-81
2022/12/03 19:16:27;;;;;;;69.73;15.63;;;;;2.40;96085.00;;;;8380452;28;20207;-82
2022/12/03 19:20:30;;;;;;;81.13;18.77;;;;;2.40;96084.00;;;;8380860;28;20206;-81
2022/12/03 19:24:33;;;;;;;66.07;16.67;;;;;2.40;96091.00;;;;8382646;28;20195;-82
2022/12/03 19:28:38;;;;;;;90.50;21.17;;;;;2.40;96097.00;;;;8380280;28;20561;-82
2022/12/03 19:32:41;;;;;;;68.60;16.83;;;;;2.40;96099.00;;;;8377236;28;20226;-81
2022/12/03 19:36:47;;;;;;;92.50;19.87;;;;;2.40;96098.00;;;;8383152;28;20746;-79
2022/12/03 19:40:58;;;;;;;82.03;18.00;;;;;2.40;96105.00;;;;8373346;28;20218;-80
2022/12/03 19:45:03;;;;;;;85.27;19.17;;;;;2.40;96109.00;;;;8371841;28;20257;-80
2022/12/03 19:49:06;;;;;;;71.83;16.93;;;;;2.40;96100.00;;;;8372527;28;20204;-80
2022/12/03 19:53:10;;;;;;;76.57;17.40;;;;;2.40;96100.00;;;;8368722;28;21038;-78
2022/12/03 19:57:13;;;;;;;54.90;15.00;;;;;2.40;96098.00;;;;8348397;28;20215;-79
2022/12/03 20:01:28;;;;;;;66.50;15.63;;;;;2.40;96101.00;;;;8360074;28;20200;-79
2022/12/03 20:05:35;;;;;;;68.33;17.77;;;;;2.30;96085.00;;;;8363846;28;20238;-80
2022/12/03 20:09:39;;;;;;;58.00;16.27;;;;;2.30;96073.00;;;;8369777;28;20255;-81
2022/12/03 20:13:42;;;;;;;87.80;18.53;;;;;2.30;96084.00;;;;8371156;28;20296;-83
2022/12/03 20:17:47;;;;;;;69.57;17.17;;;;;2.30;96076.00;;;;8372512;28;20255;-80
2022/12/03 20:21:50;;;;;;;65.27;15.53;;;;;2.30;96079.00;;;;8372933;28;20196;-81
2022/12/03 20:25:53;;;;;;;76.37;17.57;;;;;2.30;96071.00;;;;8373872;28;20234;-80
2022/12/03 20:29:57;;;;;;;79.50;15.93;;;;;2.30;96066.00;;;;8370725;28;20207;-83
2022/12/03 20:34:03;;;;;;;73.30;16.83;;;;;2.30;96065.00;;;;8369229;28;20228;-79
2022/12/03 20:38:06;;;;;;;30.50;9.33;;;;;2.30;96063.00;;;;8370076;28;20337;-80